createdAt,value
2022-08-22T00:03:15.577Z,101685.91
2022-08-22T00:08:16.207Z,101685.78
2022-08-22T00:13:42.797Z,101678.03
2022-08-22T00:19:07.504Z,101681.25
2022-08-22T00:25:24.601Z,101693.44
2022-08-22T00:30:30.601Z,101687.53
2022-08-22T00:35:40.553Z,101695.72
2022-08-22T00:41:43.612Z,101695.44
2022-08-22T00:46:55.397Z,101685.22
2022-08-22T00:52:25.266Z,101686.81
2022-08-22T00:58:11.776Z,101686.91
2022-08-22T01:03:22.453Z,101703.78
2022-08-22T01:08:56.493Z,101704.63
2022-08-22T01:14:12.587Z,101707.03
2022-08-22T01:19:43.568Z,101707.03
2022-08-22T01:25:22.489Z,101702.59
2022-08-22T01:30:47.136Z,101706.22
2022-08-22T01:35:54.763Z,101714.03
2022-08-22T01:41:35.657Z,101716.81
2022-08-22T01:46:45.290Z,101718.28
2022-08-22T01:51:56.701Z,101717.75
2022-08-22T01:57:03.374Z,101717.03
2022-08-22T02:02:33.850Z,101728.97
2022-08-22T02:08:16.362Z,101734.72
2022-08-22T02:13:32.981Z,101730.84
2022-08-22T02:19:16.561Z,101736.53
2022-08-22T02:24:30.703Z,101742.94
2022-08-22T02:29:42.347Z,101737.06
2022-08-22T02:35:05.721Z,101743.06
2022-08-22T02:40:17.534Z,101716.31
2022-08-22T02:45:45.425Z,101714.22
2022-08-22T02:51:03.792Z,101711.66
2022-08-22T02:56:08.407Z,101715.03
2022-08-22T03:01:29.847Z,101716.03
2022-08-22T03:07:13.302Z,101718.59
2022-08-22T03:12:32.409Z,101707.56
2022-08-22T03:17:57.153Z,101708.13
2022-08-22T03:23:34.212Z,101709.91
2022-08-22T03:28:59.109Z,101705.38
2022-08-22T03:34:22.919Z,101693.38
2022-08-22T03:39:50.726Z,101695.91
2022-08-22T03:45:07.712Z,101686.41
2022-08-22T03:50:47.030Z,101690.59
2022-08-22T03:56:07.383Z,101697.03
2022-08-22T04:01:39.883Z,101681.59
2022-08-22T04:06:59.384Z,101680.88
2022-08-22T04:12:27.162Z,101684.47
2022-08-22T04:17:50.578Z,101683.28
2022-08-22T04:23:14.434Z,101691.00
2022-08-22T04:28:25.809Z,101686.06
2022-08-22T04:33:33.865Z,101677.34
2022-08-22T04:38:47.730Z,101687.91
2022-08-22T04:44:05.770Z,101691.81
2022-08-22T04:49:27.998Z,101680.25
2022-08-22T04:55:04.714Z,101690.31
2022-08-22T05:00:09.284Z,101716.56
2022-08-22T05:05:14.844Z,101711.66
2022-08-22T05:10:21.982Z,101710.53
2022-08-22T05:15:30.449Z,101722.78
2022-08-22T05:20:35.028Z,101723.66
2022-08-22T05:25:41.284Z,101726.63
2022-08-22T05:36:11.651Z,101750.56
2022-08-22T05:41:20.196Z,101762.50
2022-08-22T05:46:44.272Z,101770.94
2022-08-22T05:52:08.086Z,101767.63
2022-08-22T05:57:31.151Z,101773.09
2022-08-22T06:02:59.112Z,101763.06
2022-08-22T06:08:21.603Z,101767.09
2022-08-22T06:13:52.983Z,101756.13
2022-08-22T06:18:57.615Z,101759.66
2022-08-22T06:24:01.659Z,101753.63
2022-08-22T06:29:08.562Z,101755.91
2022-08-22T06:34:30.937Z,101750.78
2022-08-22T06:39:34.136Z,101740.56
2022-08-22T06:44:43.990Z,101738.03
2022-08-22T06:49:46.176Z,101745.16
2022-08-22T06:54:52.815Z,101747.66
2022-08-22T06:59:56.963Z,101736.84
2022-08-22T07:04:59.489Z,101735.06
2022-08-22T07:10:02.298Z,101739.38
2022-08-22T07:15:19.671Z,101747.25
2022-08-22T07:20:32.066Z,101737.72
2022-08-22T07:25:48.434Z,101734.47
2022-08-22T07:38:25.233Z,101742.34
2022-08-22T07:43:29.927Z,101734.63
2022-08-22T07:49:08.023Z,101731.25
2022-08-22T07:54:14.381Z,101727.00
2022-08-22T07:59:19.227Z,101720.94
2022-08-22T08:04:26.131Z,101707.00
2022-08-22T08:09:39.060Z,101707.13
2022-08-22T08:21:33.844Z,101682.81
2022-08-22T08:27:04.079Z,101681.19
2022-08-22T08:32:12.079Z,101667.31
2022-08-22T08:37:20.430Z,101660.34
2022-08-22T08:43:13.899Z,101654.25
2022-08-22T08:48:41.821Z,101649.88
2022-08-22T08:54:05.265Z,101635.03
2022-08-22T08:59:25.686Z,101627.25
2022-08-22T09:04:34.262Z,101627.06
2022-08-22T09:10:01.101Z,101602.59
2022-08-22T09:16:02.266Z,101599.28
2022-08-22T09:21:45.944Z,101585.59
2022-08-22T09:26:52.913Z,101588.41
2022-08-22T09:32:47.242Z,101588.63
2022-08-22T09:38:07.441Z,101579.19
2022-08-22T09:43:30.320Z,101570.25
2022-08-22T09:48:53.809Z,101580.41
2022-08-22T09:54:05.121Z,101576.56
2022-08-22T10:00:13.906Z,101567.19
2022-08-22T10:05:43.672Z,101574.44
2022-08-22T10:11:14.250Z,101569.19
2022-08-22T10:16:20.113Z,101552.84
2022-08-22T10:21:40.445Z,101544.63
2022-08-22T10:26:51.046Z,101535.56
2022-08-22T10:32:07.737Z,101518.50
2022-08-22T10:37:25.369Z,101534.97
2022-08-22T10:42:43.244Z,101532.97
2022-08-22T10:47:58.341Z,101523.00
2022-08-22T10:53:28.933Z,101510.19
2022-08-22T11:04:12.314Z,101501.13
2022-08-22T11:09:26.247Z,101498.00
2022-08-22T11:14:39.079Z,101495.28
2022-08-22T11:19:55.702Z,101493.66
2022-08-22T11:25:35.658Z,101491.16
2022-08-22T11:31:15.646Z,101490.91
2022-08-22T11:36:34.511Z,101485.88
2022-08-22T11:41:44.822Z,101475.81
2022-08-22T11:46:59.520Z,101477.28
2022-08-22T11:52:04.738Z,101463.34
2022-08-22T11:57:18.717Z,101474.16
2022-08-22T12:02:53.339Z,101479.72
2022-08-22T12:08:21.194Z,101478.34
2022-08-22T12:13:51.270Z,101481.22
2022-08-22T12:33:20.809Z,101467.38
2022-08-22T12:39:01.589Z,101456.97
2022-08-22T12:44:30.393Z,101454.75
2022-08-22T12:49:41.594Z,101453.78
2022-08-22T12:54:51.763Z,101446.66
2022-08-22T13:00:00.203Z,101445.81
2022-08-22T13:05:21.749Z,101436.03
2022-08-22T13:10:50.666Z,101432.56
2022-08-22T13:16:00.239Z,101431.22
2022-08-22T13:21:06.510Z,101428.97
2022-08-22T13:26:43.873Z,101423.78
2022-08-22T13:31:53.366Z,101411.56
2022-08-22T13:37:03.829Z,101404.09
2022-08-22T13:42:14.634Z,101410.44
2022-08-22T13:47:32.466Z,101403.28
2022-08-22T13:52:52.243Z,101401.81
2022-08-22T13:58:25.079Z,101398.56
2022-08-22T14:03:37.265Z,101404.50
2022-08-22T14:08:45.762Z,101395.19
2022-08-22T14:14:03.815Z,101389.50
2022-08-22T14:19:13.504Z,101389.59
2022-08-22T14:24:27.163Z,101389.34
2022-08-22T14:29:40.999Z,101393.97
2022-08-22T14:34:45.495Z,101387.53
2022-08-22T14:39:58.391Z,101374.66
2022-08-22T14:45:08.739Z,101373.06
2022-08-22T14:50:43.235Z,101375.19
2022-08-22T14:55:56.930Z,101373.78
2022-08-22T15:01:11.224Z,101369.81
2022-08-22T15:06:38.026Z,101365.81
2022-08-22T15:11:42.297Z,101363.75
2022-08-22T15:16:53.536Z,101357.91
2022-08-22T15:22:20.550Z,101361.34
2022-08-22T15:27:24.244Z,101355.50
2022-08-22T15:32:29.677Z,101351.84
2022-08-22T15:37:34.335Z,101347.47
2022-08-22T15:42:41.932Z,101345.75
2022-08-22T15:48:25.298Z,101341.91
2022-08-22T15:53:33.565Z,101339.97
2022-08-22T15:58:40.315Z,101335.53
2022-08-22T16:04:04.876Z,101329.06
2022-08-22T16:09:07.240Z,101327.19
2022-08-22T16:14:45.151Z,101325.47
2022-08-22T16:19:47.309Z,101326.03
2022-08-22T16:24:57.927Z,101327.59
2022-08-22T16:30:05.175Z,101326.69
2022-08-22T16:35:07.205Z,101323.91
2022-08-22T16:40:45.716Z,101324.00
2022-08-22T16:45:50.631Z,101313.28
2022-08-22T16:51:28.939Z,101319.41
2022-08-22T16:57:18.526Z,101321.88
2022-08-22T17:02:59.956Z,101316.59
2022-08-22T17:09:05.400Z,101319.06
2022-08-22T17:14:45.015Z,101316.59
2022-08-22T17:20:17.893Z,101308.09
2022-08-22T17:40:12.494Z,101311.13
2022-08-22T17:46:14.068Z,101307.69
2022-08-22T18:23:02.425Z,101320.84
2022-08-22T18:29:04.623Z,101320.53
2022-08-22T18:35:22.727Z,101324.28
2022-08-22T18:41:12.406Z,101329.03
2022-08-22T19:05:51.926Z,101357.59
2022-08-22T19:36:24.089Z,101369.47
2022-08-22T19:41:59.859Z,101372.22
2022-08-22T19:47:46.694Z,101367.16
2022-08-22T20:00:53.658Z,101373.28
2022-08-22T20:20:17.689Z,101379.47
2022-08-22T20:26:07.173Z,101375.25
2022-08-22T20:54:27.123Z,101377.31
2022-08-22T21:17:34.169Z,101371.44
2022-08-22T21:22:37.053Z,101368.75
2022-08-22T22:06:01.234Z,101376.94
2022-08-22T22:11:08.591Z,101375.16
2022-08-22T22:16:14.919Z,101373.31
2022-08-22T22:21:17.918Z,101370.69
2022-08-22T22:26:21.680Z,101374.22
2022-08-22T22:31:26.408Z,101373.28
2022-08-22T22:36:32.065Z,101372.41
2022-08-22T22:42:41.940Z,101372.47
2022-08-22T22:47:44.737Z,101382.25
2022-08-22T22:52:47.133Z,101379.66
2022-08-22T22:57:59.206Z,101380.56
2022-08-22T23:03:04.598Z,101384.97
2022-08-22T23:08:07.055Z,101387.63
2022-08-22T23:13:10.061Z,101379.84
2022-08-22T23:18:17.534Z,101378.06
2022-08-22T23:23:23.902Z,101381.66
2022-08-22T23:28:27.089Z,101384.28
2022-08-22T23:33:37.558Z,101389.50
2022-08-22T23:38:45.799Z,101395.59
2022-08-22T23:43:50.903Z,101397.34
2022-08-22T23:48:59.283Z,101396.53
2022-08-22T23:54:02.818Z,101408.69
2022-08-22T23:59:14.256Z,101399.13
